Warren, PA

4:10 PM EDT on September 30, 2016 (GMT -0400)
N Warren | | Change Station

Elev 1270 ft 41.88 °N, 79.17 °W | Updated 9 seconds ago

Overcast
Overcast
62.5 °F
Feels Like 62.5 °F
N
1.0
Wind Variable Wind from ESE

Today
High -- | Low -- °F
--% Chance of Precip.
Yesterday
High -- | Low -- °F
Precip. -- in
Pressure 30.19 in
Visibility 5.0 miles
Clouds Overcast 1800 ft
Dew Point 57 °F
Humidity 83%
Rainfall 0.02 in
Snow Depth Not available.
7:13 AM 6:59 PM
Waning Crescent, 0% visible
METAR KJHW 301955Z AUTO 14009KT 5SM OVC018 16/13 A3019 RMK AO1
Pressure 30.19 in
Visibility 5.0 miles
Clouds Overcast 1800 ft
Dew Point 57 °F
Humidity 83%
Rainfall 0.02 in
Snow Depth Not available.
7:13 AM 6:59 PM
Waning Crescent, 0% visible
METAR KJHW 301955Z AUTO 14009KT 5SM OVC018 16/13 A3019 RMK AO1

10-Day Weather Forecast

Almanac

Astronomy

Sep. 30, 2016 Rise Set
Actual Time
Civil Twilight
Nautical Twilight
Astronomical Twilight
Moon
Length of Visible Light
Length of Day
Tomorrow will be .
, % of the Moon is Illuminated

Today's Extremes

State Highs State Lows

Community

WunderPhotos

Upload Photos

1,942,762 photos uploaded!

WunderBlog® & News

Nearby

Air Quality

  Air Quality AQ Index Pollutant
Not available.

Snow Depth

Station Depth Elevation

Earthquake Activity

City Distance Mag. Time & Date
Minimum magnitude displayed is 2.5.

Coastal Water Temperatures

Place Temperature

Stations

Nearby Weather Stations

Station Location Temp. Windchill Dew Point Humidity Wind Precip. Elev Updated Type
                   

Watches & Warnings

There are currently no watches in effect.